createdAt,value
2023-02-17T00:01:49.191Z,81.88
2023-02-17T00:04:36.164Z,81.79
2023-02-17T00:07:23.960Z,81.86
2023-02-17T00:10:10.707Z,81.83
2023-02-17T00:12:57.405Z,81.88
2023-02-17T00:15:43.995Z,81.77
2023-02-17T00:18:30.956Z,81.74
2023-02-17T00:21:20.405Z,81.67
2023-02-17T00:24:07.007Z,81.62
2023-02-17T00:26:53.872Z,81.45
2023-02-17T00:29:40.474Z,81.50
2023-02-17T00:32:27.287Z,81.48
2023-02-17T00:35:14.084Z,81.47
2023-02-17T00:38:00.636Z,81.43
2023-02-17T00:40:47.464Z,81.37
2023-02-17T00:43:34.702Z,81.45
2023-02-17T00:46:22.203Z,81.45
2023-02-17T00:49:14.306Z,81.20
2023-02-17T00:52:02.192Z,81.07
2023-02-17T00:54:48.933Z,80.87
2023-02-17T00:57:35.776Z,80.83
2023-02-17T01:00:22.832Z,80.76
2023-02-17T01:03:11.179Z,80.76
2023-02-17T01:05:57.697Z,80.73
2023-02-17T01:08:44.572Z,80.65
2023-02-17T01:11:33.061Z,80.57
2023-02-17T01:14:19.455Z,80.51
2023-02-17T01:17:06.263Z,80.47
2023-02-17T01:19:53.150Z,80.54
2023-02-17T01:22:40.092Z,80.43
2023-02-17T01:25:26.538Z,80.30
2023-02-17T01:28:21.146Z,80.28
2023-02-17T01:31:09.554Z,80.35
2023-02-17T01:33:58.254Z,80.36
2023-02-17T01:36:44.560Z,80.47
2023-02-17T01:39:31.271Z,80.55
2023-02-17T01:42:22.300Z,80.51
2023-02-17T01:45:17.932Z,80.58
2023-02-17T01:48:16.808Z,80.63
2023-02-17T01:51:21.549Z,80.64
2023-02-17T01:54:16.695Z,80.76
2023-02-17T01:57:03.738Z,80.77
2023-02-17T01:59:51.206Z,80.73
2023-02-17T02:02:40.340Z,80.56
2023-02-17T02:05:26.814Z,80.56
2023-02-17T02:08:15.337Z,80.60
2023-02-17T02:11:01.606Z,80.59
2023-02-17T02:13:50.647Z,80.61
2023-02-17T02:16:49.693Z,80.46
2023-02-17T02:19:48.338Z,80.61
2023-02-17T02:22:59.115Z,80.63
2023-02-17T02:26:04.940Z,80.66
2023-02-17T02:29:20.589Z,80.63
2023-02-17T02:32:38.721Z,80.71
2023-02-17T02:35:51.952Z,80.61
2023-02-17T02:38:47.127Z,80.49
2023-02-17T02:41:38.132Z,80.59
2023-02-17T02:44:25.140Z,80.66
2023-02-17T02:47:39.779Z,80.67
2023-02-17T02:51:00.980Z,80.94
2023-02-17T02:54:36.046Z,80.96
2023-02-17T02:57:30.394Z,81.30
2023-02-17T03:00:35.877Z,81.55
2023-02-17T03:03:44.396Z,81.60
2023-02-17T03:06:39.876Z,82.02
2023-02-17T03:09:27.677Z,81.94
2023-02-17T03:12:15.155Z,82.11
2023-02-17T03:15:08.521Z,82.09
2023-02-17T03:17:59.874Z,82.33
2023-02-17T03:20:54.566Z,82.42
2023-02-17T03:23:40.891Z,82.58
2023-02-17T03:26:27.715Z,82.71
2023-02-17T03:29:14.575Z,82.73
2023-02-17T03:32:01.579Z,82.82
2023-02-17T03:34:48.046Z,83.05
2023-02-17T03:37:34.896Z,83.34
2023-02-17T03:40:21.559Z,83.69
2023-02-17T03:43:09.277Z,83.70
2023-02-17T03:45:56.104Z,83.78
2023-02-17T03:48:43.524Z,83.98
2023-02-17T03:51:30.162Z,83.96
2023-02-17T03:54:16.995Z,84.04
2023-02-17T03:57:03.815Z,84.36
2023-02-17T03:59:50.335Z,84.84
2023-02-17T04:02:36.966Z,85.30
2023-02-17T04:05:24.568Z,85.72
2023-02-17T04:08:12.056Z,86.09
2023-02-17T04:11:01.362Z,86.59
2023-02-17T04:13:47.898Z,86.84
2023-02-17T04:16:34.716Z,86.86
2023-02-17T04:19:21.430Z,87.52
2023-02-17T04:22:09.030Z,87.52
2023-02-17T04:24:55.872Z,88.10
2023-02-17T04:27:42.738Z,88.03
2023-02-17T04:30:29.521Z,88.44
2023-02-17T04:33:17.540Z,88.27
2023-02-17T04:36:05.508Z,88.60
2023-02-17T04:38:52.305Z,88.62
2023-02-17T04:41:38.843Z,88.72
2023-02-17T04:44:25.818Z,88.75
2023-02-17T04:47:12.773Z,89.07
2023-02-17T04:49:59.482Z,89.02
2023-02-17T04:52:46.001Z,89.01
2023-02-17T04:55:33.514Z,88.98
2023-02-17T04:58:21.267Z,89.11
2023-02-17T05:01:07.898Z,89.32
2023-02-17T05:03:54.479Z,89.46
2023-02-17T05:06:41.250Z,89.74
2023-02-17T05:09:27.790Z,89.88
2023-02-17T05:12:14.603Z,89.95
2023-02-17T05:15:01.609Z,90.02
2023-02-17T05:17:48.508Z,90.38
2023-02-17T05:20:35.060Z,90.32
2023-02-17T05:23:21.980Z,90.28
2023-02-17T05:26:09.846Z,90.37
2023-02-17T05:28:57.743Z,90.41
2023-02-17T05:31:44.814Z,90.61
2023-02-17T05:34:32.109Z,90.61
2023-02-17T05:37:18.730Z,90.76
2023-02-17T05:40:06.414Z,90.80
2023-02-17T05:42:53.058Z,90.69
2023-02-17T05:45:39.793Z,90.78
2023-02-17T05:48:26.330Z,90.70
2023-02-17T05:51:17.225Z,90.72
2023-02-17T05:54:04.117Z,90.62
2023-02-17T05:56:50.559Z,90.58
2023-02-17T05:59:37.244Z,90.69
2023-02-17T06:02:23.976Z,90.58
2023-02-17T06:05:11.257Z,90.54
2023-02-17T06:07:58.089Z,90.50
2023-02-17T06:10:44.760Z,90.69
2023-02-17T06:13:31.336Z,90.60
2023-02-17T06:16:17.965Z,90.44
2023-02-17T06:19:06.566Z,90.44
2023-02-17T06:21:53.053Z,90.26
2023-02-17T06:24:39.866Z,90.11
2023-02-17T06:27:26.576Z,89.79
2023-02-17T06:30:15.119Z,89.66
2023-02-17T06:33:03.005Z,89.59
2023-02-17T06:35:51.646Z,89.43
2023-02-17T06:38:38.324Z,89.07
2023-02-17T06:41:25.079Z,88.90
2023-02-17T06:44:11.845Z,88.95
2023-02-17T06:46:59.426Z,89.02
2023-02-17T06:49:46.107Z,88.87
2023-02-17T06:52:32.649Z,88.83
2023-02-17T06:55:19.832Z,88.43
2023-02-17T06:58:07.544Z,88.12
2023-02-17T07:00:54.159Z,87.87
2023-02-17T07:03:40.755Z,87.26
2023-02-17T07:06:28.904Z,86.86
2023-02-17T07:09:15.331Z,86.69
2023-02-17T07:12:02.774Z,86.63
2023-02-17T07:14:49.414Z,86.66
2023-02-17T07:17:35.995Z,86.48
2023-02-17T07:20:22.729Z,86.07
2023-02-17T07:23:09.437Z,85.92
2023-02-17T07:25:56.374Z,85.17
2023-02-17T07:28:43.195Z,85.28
2023-02-17T07:31:30.251Z,85.13
2023-02-17T07:34:16.754Z,85.31
2023-02-17T07:37:03.492Z,84.74
2023-02-17T07:39:50.265Z,84.26
2023-02-17T07:42:36.950Z,84.28
2023-02-17T07:45:23.600Z,84.47
2023-02-17T07:48:10.452Z,84.24
2023-02-17T07:50:57.440Z,83.86
2023-02-17T07:53:43.838Z,84.02
2023-02-17T07:56:30.552Z,83.60
2023-02-17T07:59:16.889Z,83.40
2023-02-17T08:02:06.570Z,82.86
2023-02-17T08:04:53.322Z,83.10
2023-02-17T08:07:40.183Z,82.93
2023-02-17T08:10:46.690Z,83.17
2023-02-17T08:13:35.939Z,83.11
2023-02-17T08:16:22.252Z,82.80
2023-02-17T08:19:09.507Z,82.55
2023-02-17T08:21:56.096Z,82.37
2023-02-17T08:24:42.618Z,82.57
2023-02-17T08:27:29.228Z,82.26
2023-02-17T08:30:16.133Z,81.71
2023-02-17T08:33:02.532Z,80.90
2023-02-17T08:35:49.511Z,81.12
2023-02-17T08:38:36.173Z,81.11
2023-02-17T08:41:29.034Z,81.35
2023-02-17T08:44:18.825Z,80.89
2023-02-17T08:47:06.812Z,80.84
2023-02-17T08:49:53.799Z,80.13
2023-02-17T08:52:40.208Z,80.07
2023-02-17T08:55:35.565Z,80.27
2023-02-17T08:58:30.595Z,80.06
2023-02-17T09:01:19.225Z,79.83
2023-02-17T09:04:08.450Z,79.68
2023-02-17T09:06:56.786Z,79.98
2023-02-17T09:09:43.926Z,79.74
2023-02-17T09:12:30.914Z,79.86
2023-02-17T09:15:17.298Z,79.38
2023-02-17T09:18:04.008Z,79.40
2023-02-17T09:20:51.394Z,79.70
2023-02-17T09:23:38.497Z,80.05
2023-02-17T09:26:24.924Z,80.13
2023-02-17T09:29:11.854Z,80.67
2023-02-17T09:31:58.369Z,81.25
2023-02-17T09:34:51.514Z,81.62
2023-02-17T09:37:38.166Z,81.95
2023-02-17T09:40:33.064Z,82.18
2023-02-17T09:43:28.908Z,82.56
2023-02-17T09:46:24.131Z,82.45
2023-02-17T09:49:24.691Z,82.62
2023-02-17T09:52:21.215Z,82.84
2023-02-17T09:55:18.340Z,82.77
2023-02-17T09:58:20.172Z,83.05
2023-02-17T10:01:12.422Z,83.39
2023-02-17T10:04:07.397Z,83.75
2023-02-17T10:07:02.403Z,84.19
2023-02-17T10:09:58.437Z,84.42
2023-02-17T10:12:50.607Z,84.28
2023-02-17T10:16:10.179Z,84.76
2023-02-17T10:19:14.537Z,85.04
2023-02-17T10:22:14.946Z,85.04
2023-02-17T10:25:04.935Z,85.18
2023-02-17T10:28:17.430Z,85.28
2023-02-17T10:31:10.825Z,85.50
2023-02-17T10:34:20.338Z,85.66
2023-02-17T10:37:22.072Z,85.98
2023-02-17T10:40:15.534Z,86.34
2023-02-17T10:43:07.745Z,86.41
2023-02-17T10:45:57.711Z,86.34
2023-02-17T10:48:53.248Z,86.17
2023-02-17T10:51:39.515Z,86.33
2023-02-17T10:54:36.086Z,86.50
2023-02-17T10:57:26.731Z,86.28
2023-02-17T11:00:18.694Z,86.00
2023-02-17T11:03:05.383Z,86.43
2023-02-17T11:06:06.469Z,86.70
2023-02-17T11:08:58.812Z,86.79
2023-02-17T11:12:02.629Z,86.90
2023-02-17T11:14:54.285Z,86.81
2023-02-17T11:17:41.413Z,86.77
2023-02-17T11:20:33.195Z,86.64
2023-02-17T11:23:24.671Z,86.53
2023-02-17T11:26:18.508Z,86.50
2023-02-17T11:29:16.795Z,86.50
2023-02-17T11:32:11.117Z,86.92
2023-02-17T11:34:59.089Z,87.49
2023-02-17T11:37:45.374Z,88.11
2023-02-17T11:40:33.269Z,88.16
2023-02-17T11:43:20.856Z,88.23
2023-02-17T11:46:10.340Z,88.33
2023-02-17T11:49:06.318Z,88.48
2023-02-17T11:52:04.700Z,88.57
2023-02-17T11:55:39.023Z,88.46
2023-02-17T11:58:59.037Z,88.81
2023-02-17T12:02:02.122Z,88.80
2023-02-17T12:05:13.457Z,88.73
2023-02-17T12:08:23.175Z,88.38
2023-02-17T12:11:27.512Z,88.32
2023-02-17T12:14:45.694Z,88.64
2023-02-17T12:18:11.815Z,89.07
2023-02-17T12:21:07.239Z,89.10
2023-02-17T12:24:02.664Z,88.58
2023-02-17T12:27:12.300Z,88.40
2023-02-17T12:30:11.017Z,88.22
2023-02-17T12:33:31.238Z,88.08
2023-02-17T12:36:19.807Z,87.68
2023-02-17T12:39:35.251Z,87.78
2023-02-17T12:42:37.310Z,87.33
2023-02-17T12:45:36.868Z,87.36
2023-02-17T12:48:50.067Z,87.32
2023-02-17T12:51:51.207Z,87.22
2023-02-17T12:54:47.025Z,87.27
2023-02-17T12:57:55.963Z,87.19
2023-02-17T13:00:46.490Z,87.21
2023-02-17T13:03:34.960Z,87.05
2023-02-17T13:06:32.833Z,87.18
2023-02-17T13:09:31.670Z,87.34
2023-02-17T13:12:33.300Z,87.69
2023-02-17T13:15:34.693Z,87.80
2023-02-17T13:18:24.133Z,87.83
2023-02-17T13:21:27.517Z,87.85
2023-02-17T13:24:30.641Z,87.88
2023-02-17T13:27:34.090Z,87.98
2023-02-17T13:30:26.763Z,88.24
2023-02-17T13:33:22.888Z,88.21
2023-02-17T13:36:16.638Z,88.15
2023-02-17T13:39:26.899Z,88.19
2023-02-17T13:42:32.426Z,88.67
2023-02-17T13:45:59.728Z,89.02
2023-02-17T13:48:46.296Z,89.66
2023-02-17T13:51:34.033Z,89.89
2023-02-17T13:54:23.190Z,90.16
2023-02-17T13:57:23.008Z,90.70
2023-02-17T14:00:31.565Z,90.77
2023-02-17T14:03:25.686Z,90.85
2023-02-17T14:06:19.669Z,91.23
2023-02-17T14:09:20.701Z,91.60
2023-02-17T14:12:17.503Z,91.52
2023-02-17T14:15:04.424Z,91.75
2023-02-17T14:17:50.818Z,91.96
2023-02-17T14:20:37.635Z,92.06
2023-02-17T14:23:24.267Z,91.94
2023-02-17T14:26:27.894Z,91.84
2023-02-17T14:29:15.882Z,91.82
2023-02-17T14:32:02.388Z,91.88
2023-02-17T14:34:48.946Z,92.03
2023-02-17T14:37:37.036Z,91.99
2023-02-17T14:40:25.217Z,92.15
2023-02-17T14:43:11.673Z,92.16
2023-02-17T14:45:58.291Z,92.15
2023-02-17T14:48:44.578Z,92.24
2023-02-17T14:51:36.949Z,92.33
2023-02-17T14:54:26.326Z,92.32
2023-02-17T14:57:15.360Z,92.30
2023-02-17T15:00:01.870Z,92.26
2023-02-17T15:02:48.493Z,92.14
2023-02-17T15:05:35.141Z,92.02
2023-02-17T15:08:29.976Z,92.07
2023-02-17T15:11:20.826Z,92.07
2023-02-17T15:14:07.432Z,92.00
2023-02-17T15:16:53.646Z,91.96
2023-02-17T15:19:40.923Z,92.24
2023-02-17T15:22:27.368Z,92.18
2023-02-17T15:25:17.063Z,92.25
2023-02-17T15:28:04.124Z,92.43
2023-02-17T15:30:54.379Z,92.37
2023-02-17T15:33:41.280Z,92.43
2023-02-17T15:36:28.567Z,92.52
2023-02-17T15:39:18.395Z,92.61
2023-02-17T15:42:11.611Z,92.61
2023-02-17T15:44:58.955Z,92.50
2023-02-17T15:47:50.846Z,92.57
2023-02-17T15:50:37.356Z,92.65
2023-02-17T15:53:23.909Z,92.70
2023-02-17T15:56:20.356Z,92.89
2023-02-17T15:59:11.847Z,92.94
2023-02-17T16:02:01.288Z,93.07
2023-02-17T16:04:48.431Z,93.03
2023-02-17T16:07:36.353Z,93.03
2023-02-17T16:10:29.976Z,93.05
2023-02-17T16:13:19.570Z,93.06
2023-02-17T16:16:14.908Z,93.00
2023-02-17T16:19:02.506Z,93.10
2023-02-17T16:21:48.957Z,92.93
2023-02-17T16:24:35.317Z,93.02
2023-02-17T16:27:21.964Z,93.01
2023-02-17T16:30:30.747Z,93.01
2023-02-17T16:33:18.035Z,93.06
2023-02-17T16:36:10.689Z,93.16
2023-02-17T16:38:56.918Z,93.19
2023-02-17T16:41:44.408Z,93.31
2023-02-17T16:44:31.018Z,93.33
2023-02-17T16:47:20.923Z,93.40
2023-02-17T16:50:09.320Z,93.50
2023-02-17T16:52:59.471Z,93.55
2023-02-17T16:55:46.381Z,93.56
2023-02-17T16:58:32.723Z,93.72
2023-02-17T17:01:19.008Z,93.71
2023-02-17T17:04:06.055Z,93.62
2023-02-17T17:06:52.629Z,93.60
2023-02-17T17:09:39.083Z,93.58
2023-02-17T17:12:25.686Z,93.69
2023-02-17T17:15:13.019Z,93.61
2023-02-17T17:18:07.437Z,93.60
2023-02-17T17:20:53.567Z,93.50
2023-02-17T17:23:40.399Z,93.52
2023-02-17T17:26:41.736Z,93.51
2023-02-17T17:29:28.358Z,93.51
2023-02-17T17:32:14.955Z,93.48
2023-02-17T17:35:01.467Z,93.47
2023-02-17T17:37:48.124Z,93.51
2023-02-17T17:40:48.439Z,93.42
2023-02-17T17:43:35.005Z,93.46
2023-02-17T17:46:24.764Z,93.50
2023-02-17T17:49:14.204Z,93.52
2023-02-17T17:52:00.493Z,93.46
2023-02-17T17:54:46.897Z,93.42
2023-02-17T17:57:33.598Z,93.38
2023-02-17T18:00:20.217Z,93.48
2023-02-17T18:03:06.668Z,93.39
2023-02-17T18:05:52.956Z,93.30
2023-02-17T18:08:40.066Z,93.29
2023-02-17T18:11:27.329Z,93.24
2023-02-17T18:14:15.697Z,93.42
2023-02-17T18:17:02.465Z,93.43
2023-02-17T18:19:49.687Z,93.43
2023-02-17T18:22:35.974Z,93.36
2023-02-17T18:25:23.056Z,93.37
2023-02-17T18:28:09.298Z,93.51
2023-02-17T18:30:57.086Z,93.50
2023-02-17T18:33:43.947Z,93.48
2023-02-17T18:36:31.120Z,93.36
2023-02-17T18:39:17.471Z,93.32
2023-02-17T18:42:05.064Z,93.48
2023-02-17T18:44:52.235Z,93.40
2023-02-17T18:47:38.801Z,93.46
2023-02-17T18:50:26.414Z,93.54
2023-02-17T18:53:12.841Z,93.69
2023-02-17T18:56:01.752Z,93.76
2023-02-17T18:58:49.706Z,93.81
2023-02-17T19:01:39.461Z,93.92
2023-02-17T19:04:26.160Z,93.88
2023-02-17T19:07:12.795Z,93.88
2023-02-17T19:09:59.396Z,93.90
2023-02-17T19:12:45.786Z,93.96
2023-02-17T19:15:32.554Z,93.97
2023-02-17T19:18:19.113Z,94.03
2023-02-17T19:21:06.963Z,94.04
2023-02-17T19:23:53.749Z,94.24
2023-02-17T19:26:40.464Z,94.31
2023-02-17T19:29:26.665Z,94.34
2023-02-17T19:32:13.654Z,94.36
2023-02-17T19:34:59.851Z,94.53
2023-02-17T19:37:46.350Z,94.56
2023-02-17T19:40:35.003Z,94.55
2023-02-17T19:43:21.206Z,94.56
2023-02-17T19:46:08.338Z,94.61
2023-02-17T19:48:54.998Z,94.52
2023-02-17T19:51:41.484Z,94.69
2023-02-17T19:54:27.809Z,94.83
2023-02-17T19:57:17.446Z,94.75
2023-02-17T20:00:05.604Z,94.76
2023-02-17T20:02:51.995Z,94.73
2023-02-17T20:05:40.004Z,94.62
2023-02-17T20:08:26.600Z,94.54
2023-02-17T20:11:14.475Z,94.56
2023-02-17T20:14:01.892Z,94.34
2023-02-17T20:16:53.445Z,94.25
2023-02-17T20:19:41.029Z,94.02
2023-02-17T20:22:27.334Z,93.91
2023-02-17T20:25:13.697Z,93.81
2023-02-17T20:27:59.999Z,93.57
2023-02-17T20:30:46.268Z,93.49
2023-02-17T20:33:32.686Z,93.41
2023-02-17T20:36:18.991Z,93.25
2023-02-17T20:39:05.446Z,93.19
2023-02-17T20:41:54.860Z,92.98
2023-02-17T20:44:42.125Z,92.66
2023-02-17T20:47:29.742Z,92.23
2023-02-17T20:50:18.910Z,92.13
2023-02-17T20:53:05.167Z,91.92
2023-02-17T20:55:52.117Z,91.54
2023-02-17T20:58:40.228Z,91.55
2023-02-17T21:01:27.227Z,91.46
2023-02-17T21:04:15.254Z,91.27
2023-02-17T21:07:01.748Z,91.13
2023-02-17T21:09:48.311Z,91.06
2023-02-17T21:12:34.920Z,90.73
2023-02-17T21:15:21.825Z,90.52
2023-02-17T21:18:09.240Z,90.30
2023-02-17T21:20:55.555Z,90.07
2023-02-17T21:23:42.283Z,89.93
2023-02-17T21:26:28.475Z,89.72
2023-02-17T21:29:15.005Z,89.50
2023-02-17T21:32:01.295Z,89.63
2023-02-17T21:34:47.675Z,89.79
2023-02-17T21:37:34.464Z,89.65
2023-02-17T21:40:21.219Z,89.51
2023-02-17T21:43:39.600Z,89.20
2023-02-17T21:46:26.973Z,89.64
2023-02-17T21:49:13.944Z,89.19
2023-02-17T21:52:00.432Z,89.21
2023-02-17T21:54:46.495Z,88.80
2023-02-17T21:57:33.285Z,88.83
2023-02-17T22:00:19.986Z,88.63
2023-02-17T22:03:06.478Z,88.37
2023-02-17T22:05:53.019Z,87.41
2023-02-17T22:08:39.645Z,88.53
2023-02-17T22:11:30.026Z,89.04
2023-02-17T22:14:18.751Z,89.24
2023-02-17T22:17:05.049Z,88.86
2023-02-17T22:19:51.448Z,88.35
2023-02-17T22:22:37.827Z,88.36
2023-02-17T22:25:24.590Z,88.85
2023-02-17T22:28:13.426Z,89.05
2023-02-17T22:31:00.558Z,88.45
2023-02-17T22:33:47.359Z,87.90
2023-02-17T22:36:35.385Z,86.73
2023-02-17T22:39:21.667Z,86.60
2023-02-17T22:42:08.060Z,84.82
2023-02-17T22:44:54.647Z,83.26
2023-02-17T22:47:41.118Z,81.85
2023-02-17T22:50:27.332Z,81.35
2023-02-17T22:53:13.678Z,81.60
2023-02-17T22:55:59.734Z,81.49
2023-02-17T22:58:46.073Z,81.76
2023-02-17T23:01:35.466Z,82.02
2023-02-17T23:04:21.687Z,81.79
2023-02-17T23:07:08.665Z,81.31
2023-02-17T23:09:55.237Z,82.20
2023-02-17T23:12:41.462Z,81.52
2023-02-17T23:15:39.787Z,81.33
2023-02-17T23:18:27.486Z,79.78
2023-02-17T23:21:13.833Z,79.48
2023-02-17T23:24:00.258Z,79.37
2023-02-17T23:26:47.611Z,79.52
2023-02-17T23:29:34.852Z,80.03
2023-02-17T23:32:21.100Z,80.79
2023-02-17T23:35:07.728Z,80.39
2023-02-17T23:37:54.050Z,80.09
2023-02-17T23:40:42.041Z,80.65
2023-02-17T23:43:28.679Z,79.27
2023-02-17T23:46:15.000Z,79.27
2023-02-17T23:49:01.598Z,79.20
2023-02-17T23:51:47.855Z,79.39
2023-02-17T23:54:34.072Z,78.61
2023-02-17T23:57:20.395Z,77.38
